createdAt,value
2018-06-03T00:00:08.286Z,0
2018-06-03T00:00:48.760Z,0
2018-06-03T00:01:29.184Z,0
2018-06-03T00:02:09.563Z,0
2018-06-03T00:02:49.991Z,0
2018-06-03T00:03:30.349Z,0
2018-06-03T00:04:10.747Z,0
2018-06-03T00:04:51.164Z,0
2018-06-03T00:05:31.538Z,0
2018-06-03T00:06:11.948Z,0
2018-06-03T00:06:52.379Z,0
2018-06-03T00:07:32.779Z,0
2018-06-03T00:08:13.204Z,0
2018-06-03T00:08:53.616Z,0
2018-06-03T00:09:34.035Z,0
2018-06-03T00:10:14.448Z,0
2018-06-03T00:10:54.811Z,0
2018-06-03T00:11:35.187Z,0
2018-06-03T00:12:15.588Z,0
2018-06-03T00:12:55.971Z,0
2018-06-03T00:13:36.359Z,0
2018-06-03T00:14:16.802Z,0
2018-06-03T00:14:57.207Z,0
2018-06-03T00:15:37.621Z,0
2018-06-03T00:16:18.000Z,0
2018-06-03T00:16:58.436Z,0
2018-06-03T00:17:38.864Z,0
2018-06-03T00:18:19.207Z,0
2018-06-03T00:18:59.682Z,0
2018-06-03T00:19:40.057Z,0
2018-06-03T00:20:20.466Z,0
2018-06-03T00:21:00.835Z,0
2018-06-03T00:21:41.244Z,0
2018-06-03T00:22:21.642Z,0
2018-06-03T00:23:02.070Z,0
2018-06-03T00:23:42.470Z,0
2018-06-03T00:24:22.887Z,0
2018-06-03T00:25:03.292Z,0
2018-06-03T00:25:43.646Z,0
2018-06-03T00:26:24.062Z,0
2018-06-03T00:27:04.518Z,0
2018-06-03T00:27:44.915Z,0
2018-06-03T00:28:25.335Z,0
2018-06-03T00:29:05.786Z,0
2018-06-03T00:29:46.162Z,0
2018-06-03T00:30:26.538Z,0
2018-06-03T00:31:06.965Z,0
2018-06-03T00:31:47.392Z,0
2018-06-03T00:32:27.815Z,0
2018-06-03T00:33:08.189Z,0
2018-06-03T00:33:48.584Z,0
2018-06-03T00:34:29.048Z,0
2018-06-03T00:35:09.387Z,0
2018-06-03T00:35:49.796Z,0
2018-06-03T00:36:30.215Z,0
2018-06-03T00:37:10.610Z,0
2018-06-03T00:37:50.943Z,0
2018-06-03T00:38:31.367Z,0
2018-06-03T00:39:11.811Z,0
2018-06-03T00:39:52.197Z,0
2018-06-03T00:40:32.600Z,0
2018-06-03T00:41:12.990Z,0
2018-06-03T00:41:53.441Z,0
2018-06-03T00:42:33.825Z,0
2018-06-03T00:43:14.187Z,0
2018-06-03T00:43:54.589Z,0
2018-06-03T00:44:34.986Z,0
2018-06-03T00:45:15.393Z,0
2018-06-03T00:45:55.853Z,0
2018-06-03T00:46:36.203Z,0
2018-06-03T00:47:16.617Z,0
2018-06-03T00:47:56.996Z,0
2018-06-03T00:48:37.354Z,0
2018-06-03T00:49:17.754Z,0
2018-06-03T00:49:58.202Z,0
2018-06-03T00:50:38.591Z,0
2018-06-03T00:51:18.992Z,0
2018-06-03T00:51:59.351Z,0
2018-06-03T00:52:39.802Z,0
2018-06-03T00:53:20.228Z,0
2018-06-03T00:54:00.568Z,0
2018-06-03T00:54:41.000Z,0
2018-06-03T00:55:21.412Z,0
2018-06-03T00:56:01.767Z,0
2018-06-03T00:56:42.176Z,0
2018-06-03T00:57:22.596Z,0
2018-06-03T00:58:03.004Z,0
2018-06-03T00:58:43.409Z,0
2018-06-03T00:59:23.858Z,0
2018-06-03T01:00:04.246Z,0
2018-06-03T01:00:44.642Z,0
2018-06-03T01:01:25.052Z,0
2018-06-03T01:02:05.514Z,0
2018-06-03T01:02:45.847Z,0
2018-06-03T01:03:26.291Z,0
2018-06-03T01:04:06.714Z,0
2018-06-03T01:04:47.104Z,0
2018-06-03T01:05:27.470Z,0
2018-06-03T01:06:07.880Z,0
2018-06-03T01:06:48.275Z,0
2018-06-03T01:07:28.689Z,0
2018-06-03T01:08:09.128Z,0
2018-06-03T01:08:49.513Z,0
2018-06-03T01:09:29.895Z,0
2018-06-03T01:10:10.324Z,0
2018-06-03T01:10:50.769Z,0
2018-06-03T01:11:31.184Z,0
2018-06-03T01:12:11.646Z,0
2018-06-03T01:12:52.003Z,0
2018-06-03T01:13:32.429Z,0
2018-06-03T01:14:12.797Z,0
2018-06-03T01:14:53.247Z,0
2018-06-03T01:15:33.623Z,0
2018-06-03T01:16:14.020Z,0
2018-06-03T01:16:54.444Z,0
2018-06-03T01:17:34.822Z,0
2018-06-03T01:18:15.260Z,0
2018-06-03T01:18:55.652Z,0
2018-06-03T01:19:36.101Z,0
2018-06-03T01:20:16.535Z,0
2018-06-03T01:20:56.937Z,0
2018-06-03T01:21:37.280Z,0
2018-06-03T01:22:17.690Z,0
2018-06-03T01:22:58.083Z,0
2018-06-03T01:23:38.458Z,0
2018-06-03T01:24:18.867Z,0
2018-06-03T01:24:59.231Z,0
2018-06-03T01:25:39.635Z,0
2018-06-03T01:26:20.085Z,0
2018-06-03T01:27:00.489Z,0
2018-06-03T01:27:40.854Z,0
2018-06-03T01:28:21.289Z,0
2018-06-03T01:29:01.673Z,0
2018-06-03T01:29:42.057Z,0
2018-06-03T01:30:22.441Z,0
2018-06-03T01:31:02.922Z,0
2018-06-03T01:31:43.271Z,0
2018-06-03T01:32:23.664Z,0
2018-06-03T01:33:04.086Z,0
2018-06-03T01:33:44.497Z,0
2018-06-03T01:34:24.921Z,0
2018-06-03T01:35:05.324Z,0
2018-06-03T01:35:45.770Z,0
2018-06-03T01:36:26.125Z,0
2018-06-03T01:37:06.542Z,0
2018-06-03T01:37:46.998Z,0
2018-06-03T01:38:27.345Z,0
2018-06-03T01:39:07.789Z,0
2018-06-03T01:39:48.171Z,0
2018-06-03T01:40:28.662Z,0
2018-06-03T01:41:08.976Z,0
2018-06-03T01:41:49.393Z,0
2018-06-03T01:42:29.782Z,0
2018-06-03T01:43:10.195Z,0
2018-06-03T01:43:50.596Z,0
2018-06-03T01:44:30.989Z,0
2018-06-03T01:45:11.382Z,0
2018-06-03T01:45:51.767Z,0
2018-06-03T01:46:32.235Z,0
2018-06-03T01:47:12.601Z,0
2018-06-03T01:47:53.062Z,0
2018-06-03T01:48:33.458Z,0
2018-06-03T01:49:13.890Z,0
2018-06-03T01:49:54.283Z,0
2018-06-03T01:50:34.701Z,0
2018-06-03T01:51:15.084Z,0
2018-06-03T01:51:55.561Z,0
2018-06-03T01:52:35.934Z,0
2018-06-03T01:53:16.304Z,0
2018-06-03T01:53:56.719Z,0
2018-06-03T01:54:37.091Z,0
2018-06-03T01:55:17.534Z,0
2018-06-03T01:55:57.950Z,0
2018-06-03T01:56:38.339Z,0
2018-06-03T01:57:18.749Z,0
2018-06-03T01:57:59.185Z,0
2018-06-03T01:58:39.579Z,0
2018-06-03T01:59:20.000Z,0
2018-06-03T02:00:00.411Z,0
2018-06-03T02:00:40.796Z,0
2018-06-03T02:01:21.212Z,0
2018-06-03T02:02:01.618Z,0
2018-06-03T02:02:42.019Z,0
2018-06-03T02:03:22.447Z,0
2018-06-03T02:04:02.863Z,0
2018-06-03T02:04:43.220Z,0
2018-06-03T02:05:23.625Z,0
2018-06-03T02:06:04.028Z,0
2018-06-03T02:06:44.512Z,0
2018-06-03T02:07:24.890Z,0
2018-06-03T02:08:05.298Z,0
2018-06-03T02:08:45.685Z,0
2018-06-03T02:09:26.130Z,0
2018-06-03T02:10:06.508Z,0
2018-06-03T02:10:46.892Z,0
2018-06-03T02:11:27.292Z,0
2018-06-03T02:12:07.705Z,0
2018-06-03T02:12:48.121Z,0
2018-06-03T02:13:28.522Z,0
2018-06-03T02:14:08.908Z,0
2018-06-03T02:14:49.288Z,0
2018-06-03T02:15:29.706Z,0
2018-06-03T02:16:10.084Z,0
2018-06-03T02:16:50.491Z,0
2018-06-03T02:17:30.904Z,0
2018-06-03T02:18:11.295Z,0
2018-06-03T02:18:51.713Z,0
2018-06-03T02:19:32.079Z,0
2018-06-03T02:20:12.514Z,0
2018-06-03T02:20:52.920Z,0
2018-06-03T02:21:33.343Z,0
2018-06-03T02:22:13.741Z,0
2018-06-03T02:22:54.102Z,0
2018-06-03T02:23:34.488Z,0
2018-06-03T02:24:14.964Z,0
2018-06-03T02:24:55.349Z,0
2018-06-03T02:25:35.743Z,0
2018-06-03T02:26:16.158Z,0
2018-06-03T02:26:56.557Z,0
2018-06-03T02:27:36.946Z,0
2018-06-03T02:28:17.301Z,0
2018-06-03T02:28:57.743Z,0
2018-06-03T02:29:38.168Z,0
2018-06-03T02:30:18.540Z,0
2018-06-03T02:30:58.943Z,0
2018-06-03T02:31:39.315Z,0
2018-06-03T02:32:19.724Z,0
2018-06-03T02:33:00.173Z,0
2018-06-03T02:33:40.593Z,0
2018-06-03T02:34:20.986Z,0
2018-06-03T02:35:01.392Z,0
2018-06-03T02:35:41.824Z,0
2018-06-03T02:36:23.025Z,0
2018-06-03T02:37:03.424Z,0
2018-06-03T02:37:43.807Z,0
2018-06-03T02:38:24.268Z,0
2018-06-03T02:39:04.633Z,0
2018-06-03T02:39:45.032Z,0
2018-06-03T02:40:25.445Z,0
2018-06-03T02:41:05.846Z,0
2018-06-03T02:41:46.242Z,0
2018-06-03T02:42:26.656Z,0
2018-06-03T02:43:07.015Z,0
2018-06-03T02:43:47.446Z,0
2018-06-03T02:44:27.848Z,0
2018-06-03T02:45:08.262Z,0
2018-06-03T02:45:48.638Z,0
2018-06-03T02:46:29.051Z,0
2018-06-03T02:47:09.438Z,0
2018-06-03T02:47:49.853Z,0
2018-06-03T02:48:30.250Z,0
2018-06-03T02:49:10.669Z,0
2018-06-03T02:49:51.047Z,4
2018-06-03T02:50:31.469Z,4
2018-06-03T02:51:11.873Z,4
2018-06-03T02:51:52.225Z,4
2018-06-03T02:52:32.649Z,0
2018-06-03T02:53:13.070Z,0
2018-06-03T02:53:53.455Z,0
2018-06-03T02:54:33.872Z,4
2018-06-03T02:55:14.257Z,4
2018-06-03T02:55:54.637Z,4
2018-06-03T02:56:35.075Z,4
2018-06-03T02:57:15.442Z,4
2018-06-03T02:57:55.844Z,4
2018-06-03T02:58:36.276Z,4
2018-06-03T02:59:16.651Z,4
2018-06-03T02:59:57.027Z,4
2018-06-03T03:00:37.455Z,4
2018-06-03T03:01:17.835Z,4
2018-06-03T03:01:58.297Z,8
2018-06-03T03:02:38.691Z,4
2018-06-03T03:03:19.044Z,8
2018-06-03T03:03:59.430Z,8
2018-06-03T03:04:39.834Z,8
2018-06-03T03:05:20.254Z,12
2018-06-03T03:06:00.640Z,8
2018-06-03T03:06:41.029Z,12
2018-06-03T03:07:21.425Z,12
2018-06-03T03:08:01.823Z,12
2018-06-03T03:08:42.288Z,12
2018-06-03T03:09:36.432Z,12
2018-06-03T03:10:46.314Z,16
2018-06-03T03:12:51.130Z,20
2018-06-03T03:13:31.509Z,24
2018-06-03T03:14:11.893Z,24
2018-06-03T03:14:52.312Z,24
2018-06-03T03:15:32.718Z,24
2018-06-03T03:16:13.157Z,28
2018-06-03T03:16:53.595Z,28
2018-06-03T03:17:33.951Z,32
2018-06-03T03:18:14.333Z,32
2018-06-03T03:18:54.736Z,36
2018-06-03T03:19:35.167Z,36
2018-06-03T03:20:15.553Z,36
2018-06-03T03:20:55.983Z,44
2018-06-03T03:21:36.417Z,44
2018-06-03T03:22:16.739Z,44
2018-06-03T03:22:57.190Z,48
2018-06-03T03:23:37.552Z,48
2018-06-03T03:24:17.930Z,52
2018-06-03T03:24:58.375Z,56
2018-06-03T03:25:38.765Z,60
2018-06-03T03:26:19.155Z,64
2018-06-03T03:26:59.532Z,68
2018-06-03T03:27:39.965Z,68
2018-06-03T03:28:20.382Z,76
2018-06-03T03:29:00.808Z,84
2018-06-03T03:29:41.260Z,84
2018-06-03T03:30:21.587Z,88
2018-06-03T03:31:02.029Z,96
2018-06-03T03:31:42.426Z,100
2018-06-03T03:32:22.816Z,104
2018-06-03T03:33:03.231Z,108
2018-06-03T03:33:43.641Z,116
2018-06-03T03:34:24.040Z,120
2018-06-03T03:35:04.456Z,128
2018-06-03T03:35:44.883Z,128
2018-06-03T03:36:30.939Z,132
2018-06-03T03:37:11.376Z,140
2018-06-03T03:37:51.739Z,144
2018-06-03T03:38:32.245Z,148
2018-06-03T03:39:12.686Z,152
2018-06-03T03:39:55.931Z,156
2018-06-03T03:45:17.464Z,204
2018-06-03T03:46:06.474Z,208
2018-06-03T03:46:56.475Z,212
2018-06-03T03:47:46.470Z,220
2018-06-03T03:48:35.501Z,228
2018-06-03T03:49:24.491Z,232
2018-06-03T03:50:13.444Z,236
2018-06-03T03:50:53.839Z,240
2018-06-03T03:51:34.246Z,244
2018-06-03T03:52:14.632Z,248
2018-06-03T03:52:55.039Z,252
2018-06-03T03:53:35.447Z,256
2018-06-03T03:54:15.881Z,268
2018-06-03T03:54:56.288Z,272
2018-06-03T03:55:36.677Z,280
2018-06-03T03:56:17.040Z,292
2018-06-03T03:56:57.445Z,300
2018-06-03T03:57:37.877Z,312
2018-06-03T03:58:18.271Z,324
2018-06-03T03:58:58.695Z,340
2018-06-03T03:59:39.046Z,356
2018-06-03T04:00:19.420Z,372
2018-06-03T04:00:59.813Z,388
2018-06-03T04:01:40.250Z,404
2018-06-03T04:02:20.641Z,420
2018-06-03T04:03:01.043Z,432
2018-06-03T04:03:41.488Z,440
2018-06-03T04:42:09.657Z,2232
2018-06-03T04:42:49.998Z,2200
2018-06-03T04:43:30.473Z,2140
2018-06-03T04:44:10.837Z,2124
2018-06-03T04:44:51.230Z,2140
2018-06-03T04:45:31.623Z,2164
2018-06-03T04:46:11.991Z,2228
2018-06-03T04:46:52.453Z,2436
2018-06-03T04:47:32.819Z,2860
2018-06-03T04:48:13.267Z,3044
2018-06-03T04:48:53.661Z,3336
2018-06-03T04:49:34.019Z,3164
2018-06-03T04:50:14.438Z,3200
2018-06-03T04:50:54.895Z,3364
2018-06-03T04:51:35.305Z,3372
2018-06-03T04:52:15.696Z,3420
2018-06-03T04:52:56.148Z,3480
2018-06-03T04:53:36.546Z,3572
2018-06-03T04:54:16.937Z,3692
2018-06-03T04:54:57.410Z,3788
2018-06-03T04:55:37.712Z,3892
2018-06-03T04:56:18.165Z,5940
2018-06-03T04:56:58.598Z,7048
2018-06-03T04:57:38.962Z,7332
2018-06-03T04:58:19.363Z,8036
2018-06-03T04:58:59.787Z,8252
2018-06-03T04:59:40.227Z,8412
2018-06-03T05:00:20.629Z,8772
2018-06-03T05:01:01.024Z,8788
2018-06-03T05:01:41.452Z,8940
2018-06-03T05:02:21.876Z,9372
2018-06-03T05:03:02.228Z,9852
2018-06-03T05:03:42.664Z,10404
2018-06-03T05:04:23.082Z,10848
2018-06-03T05:05:03.482Z,11196
2018-06-03T05:05:43.893Z,11580
2018-06-03T05:06:24.290Z,11692
2018-06-03T05:07:04.703Z,12064
2018-06-03T05:07:45.112Z,12256
2018-06-03T05:08:25.497Z,12160
2018-06-03T05:09:05.955Z,11784
2018-06-03T05:09:46.321Z,11876
2018-06-03T05:10:26.722Z,12128
2018-06-03T05:11:07.139Z,12320
2018-06-03T05:11:47.509Z,12416
2018-06-03T05:12:27.903Z,12512
2018-06-03T05:13:08.374Z,12768
2018-06-03T05:13:48.725Z,13216
2018-06-03T05:14:29.172Z,13280
2018-06-03T05:15:09.579Z,13312
2018-06-03T05:15:49.950Z,13248
2018-06-03T05:16:30.428Z,13568
2018-06-03T05:17:10.804Z,13312
2018-06-03T05:17:51.184Z,13536
2018-06-03T05:18:31.652Z,14240
2018-06-03T05:19:12.055Z,14432
2018-06-03T05:19:52.505Z,14496
2018-06-03T05:20:32.825Z,14688
2018-06-03T05:21:13.238Z,14944
2018-06-03T05:21:53.657Z,15072
2018-06-03T05:22:34.025Z,14880
2018-06-03T05:23:14.453Z,14944
2018-06-03T05:23:54.836Z,15040
2018-06-03T05:24:35.308Z,14624
2018-06-03T05:25:15.690Z,14432
2018-06-03T05:25:56.042Z,15008
2018-06-03T05:26:36.483Z,15072
2018-06-03T05:27:16.911Z,15168
2018-06-03T05:27:57.326Z,15552
2018-06-03T05:28:37.706Z,15872
2018-06-03T05:29:18.159Z,16096
2018-06-03T05:29:58.599Z,16416
2018-06-03T05:30:39.005Z,16960
2018-06-03T05:31:19.409Z,16832
2018-06-03T05:31:59.769Z,16960
2018-06-03T05:32:40.158Z,16864
2018-06-03T05:33:20.592Z,17056
2018-06-03T05:34:01.006Z,17632
2018-06-03T05:34:41.440Z,17632
2018-06-03T05:35:21.851Z,17344
2018-06-03T05:36:02.285Z,16672
2018-06-03T05:36:42.651Z,15936
2018-06-03T05:37:23.073Z,15104
2018-06-03T05:38:03.495Z,14400
2018-06-03T05:38:43.834Z,13444
2018-06-03T05:39:24.274Z,13700
2018-06-03T05:40:04.645Z,13724
2018-06-03T05:40:45.084Z,13732
2018-06-03T05:41:25.511Z,14176
2018-06-03T05:42:05.918Z,15136
2018-06-03T05:42:46.336Z,15776
2018-06-03T05:43:26.781Z,16960
2018-06-03T05:44:07.208Z,17248
2018-06-03T05:44:47.548Z,17248
2018-06-03T05:45:28.026Z,16896
2018-06-03T05:46:08.403Z,15936
2018-06-03T05:46:48.942Z,15424
2018-06-03T05:47:29.391Z,14464
2018-06-03T05:48:09.727Z,13612
2018-06-03T05:48:50.136Z,12732
2018-06-03T05:49:30.575Z,12352
2018-06-03T05:50:10.942Z,13724
2018-06-03T05:50:51.352Z,16288
2018-06-03T05:51:31.804Z,17056
2018-06-03T05:52:12.223Z,18016
2018-06-03T05:52:52.658Z,19328
2018-06-03T05:53:33.054Z,19680
2018-06-03T05:54:13.494Z,19552
2018-06-03T05:54:53.870Z,18816
2018-06-03T05:55:34.282Z,17824
2018-06-03T05:56:14.725Z,16544
2018-06-03T05:56:55.091Z,16800
2018-06-03T05:57:35.486Z,17824
2018-06-03T05:58:16.120Z,20544
2018-06-03T05:58:56.490Z,21888
2018-06-03T05:59:36.888Z,23392
2018-06-03T06:00:17.351Z,24288
2018-06-03T06:00:57.720Z,25280
2018-06-03T06:01:38.130Z,25952
2018-06-03T06:02:18.563Z,26240
2018-06-03T06:02:58.998Z,26336
2018-06-03T06:03:39.371Z,25888
2018-06-03T06:04:19.797Z,26176
2018-06-03T06:05:00.143Z,26432
2018-06-03T06:05:40.604Z,26944
2018-06-03T06:06:21.028Z,27744
2018-06-03T06:07:01.464Z,28928
2018-06-03T06:07:41.821Z,29024
2018-06-03T06:08:22.221Z,29056
2018-06-03T06:09:02.642Z,29408
2018-06-03T06:09:43.039Z,29632
2018-06-03T06:10:23.466Z,30048
2018-06-03T06:11:03.877Z,29888
2018-06-03T06:11:44.278Z,29920
2018-06-03T06:12:24.679Z,29984
2018-06-03T06:13:05.077Z,29696
2018-06-03T06:13:45.467Z,29440
2018-06-03T06:14:25.978Z,28704
2018-06-03T06:15:06.345Z,28736
2018-06-03T06:15:46.790Z,28384
2018-06-03T06:16:27.187Z,27872
2018-06-03T06:17:07.623Z,27360
2018-06-03T06:17:48.028Z,27168
2018-06-03T06:18:28.448Z,27136
2018-06-03T06:19:08.839Z,28064
2018-06-03T06:19:49.279Z,28064
2018-06-03T06:20:29.701Z,27424
2018-06-03T06:21:12.889Z,27488
2018-06-03T06:22:00.343Z,29120
2018-06-03T06:22:40.711Z,32160
2018-06-03T06:23:21.161Z,33248
2018-06-03T06:24:01.504Z,31776
2018-06-03T06:24:41.907Z,30080
2018-06-03T06:25:22.374Z,26752
2018-06-03T06:26:02.730Z,26016
2018-06-03T06:26:43.165Z,24544
2018-06-03T06:27:23.567Z,24384
2018-06-03T06:28:03.971Z,24544
2018-06-03T06:28:44.348Z,24640
2018-06-03T06:29:24.809Z,24768
2018-06-03T06:30:05.202Z,24416
2018-06-03T06:30:45.573Z,24128
2018-06-03T06:31:25.983Z,24256
2018-06-03T06:32:06.410Z,25312
2018-06-03T06:32:46.791Z,26912
2018-06-03T06:33:34.563Z,28480
2018-06-03T06:34:14.969Z,28544
2018-06-03T06:34:55.384Z,28512
2018-06-03T06:35:35.820Z,28640
2018-06-03T06:36:16.206Z,27296
2018-06-03T06:36:56.638Z,25216
2018-06-03T06:37:37.033Z,24000
2018-06-03T06:38:17.471Z,23680
2018-06-03T06:38:57.899Z,23488
2018-06-03T06:39:38.255Z,23808
2018-06-03T06:40:18.719Z,24416
2018-06-03T06:40:59.105Z,24736
2018-06-03T06:41:39.558Z,25312
2018-06-03T06:42:19.936Z,25952
2018-06-03T06:43:00.342Z,26528
2018-06-03T06:43:40.816Z,27104
2018-06-03T06:44:21.174Z,27168
2018-06-03T06:45:01.591Z,27008
2018-06-03T06:45:42.048Z,25760
2018-06-03T06:46:22.423Z,25216
2018-06-03T06:47:02.859Z,24096
2018-06-03T06:47:43.278Z,23360
2018-06-03T06:48:37.941Z,23168
2018-06-03T06:49:21.120Z,23168
2018-06-03T06:50:01.612Z,23200
2018-06-03T06:50:41.982Z,23200
2018-06-03T06:51:22.397Z,23104
2018-06-03T06:52:02.852Z,22848
2018-06-03T06:52:53.233Z,23104
2018-06-03T06:53:40.685Z,24416
2018-06-03T06:54:27.691Z,27392
2018-06-03T06:55:08.138Z,29888
2018-06-03T06:55:48.498Z,32256
2018-06-03T06:56:28.963Z,33920
2018-06-03T06:57:09.484Z,34432
2018-06-03T06:59:14.595Z,35488
2018-06-03T06:59:55.036Z,36160
2018-06-03T07:00:35.483Z,36704
2018-06-03T07:01:15.871Z,36576
2018-06-03T07:01:56.340Z,36192
2018-06-03T07:02:36.810Z,35200
2018-06-03T07:03:17.193Z,35168
2018-06-03T07:03:57.633Z,36128
2018-06-03T07:04:38.095Z,37024
2018-06-03T07:05:18.481Z,37504
2018-06-03T07:05:58.898Z,37312
2018-06-03T07:06:39.306Z,35648
2018-06-03T07:07:19.714Z,34656
2018-06-03T07:08:00.125Z,35680
2018-06-03T07:08:40.528Z,37536
2018-06-03T07:09:20.955Z,38528
2018-06-03T07:10:01.396Z,39200
2018-06-03T07:10:41.742Z,39232
2018-06-03T07:11:22.185Z,39008
2018-06-03T07:12:02.580Z,37376
2018-06-03T07:12:43.007Z,37248
2018-06-03T07:13:23.439Z,37792
2018-06-03T07:14:03.875Z,34656
2018-06-03T07:14:44.347Z,27520
2018-06-03T07:15:24.761Z,19680
2018-06-03T07:16:05.204Z,15096
2018-06-03T07:16:45.578Z,14120
2018-06-03T07:17:26.026Z,13528
2018-06-03T07:18:06.540Z,13180
2018-06-03T07:18:46.998Z,12824
2018-06-03T07:19:27.404Z,12556
2018-06-03T07:20:07.838Z,12320
2018-06-03T07:20:48.258Z,12140
2018-06-03T07:21:28.673Z,11912
2018-06-03T07:22:09.083Z,11712
2018-06-03T07:22:49.503Z,11524
2018-06-03T07:23:29.923Z,11240
2018-06-03T07:24:10.358Z,10852
2018-06-03T07:24:50.750Z,10672
2018-06-03T07:25:31.174Z,10608
2018-06-03T07:26:11.596Z,10484
2018-06-03T07:26:52.018Z,10308
2018-06-03T07:27:32.450Z,10136
2018-06-03T07:28:12.906Z,9988
2018-06-03T07:28:53.302Z,9768
2018-06-03T07:29:33.699Z,9688
2018-06-03T07:30:14.109Z,9592
2018-06-03T07:30:54.534Z,9452
2018-06-03T07:31:35.000Z,9316
2018-06-03T07:32:15.378Z,9164
2018-06-03T07:32:55.825Z,9080
2018-06-03T07:33:36.236Z,9140
2018-06-03T07:34:16.692Z,9176
2018-06-03T07:34:57.107Z,9108
2018-06-03T07:35:37.502Z,9036
2018-06-03T07:36:17.946Z,8916
2018-06-03T07:36:58.317Z,8560
2018-06-03T07:37:38.731Z,8148
2018-06-03T07:38:19.228Z,7840
2018-06-03T07:38:59.591Z,7728
2018-06-03T07:39:40.001Z,7644
2018-06-03T07:40:20.383Z,7544
2018-06-03T07:41:01.438Z,7420
2018-06-03T07:41:42.056Z,7304
2018-06-03T07:42:22.448Z,7224
2018-06-03T07:43:02.823Z,7144
2018-06-03T07:43:43.235Z,7052
2018-06-03T07:44:23.723Z,6956
2018-06-03T07:45:04.090Z,6884
2018-06-03T07:45:44.537Z,6820
2018-06-03T07:46:24.936Z,6760
2018-06-03T07:47:05.395Z,6720
2018-06-03T07:47:45.835Z,6644
2018-06-03T07:48:26.249Z,6576
2018-06-03T07:49:06.700Z,6496
2018-06-03T07:49:47.119Z,6440
2018-06-03T07:50:27.590Z,6396
2018-06-03T07:51:07.967Z,6376
2018-06-03T07:51:48.413Z,6360
2018-06-03T07:52:28.787Z,6340
2018-06-03T07:53:09.200Z,6316
2018-06-03T07:53:49.658Z,6316
2018-06-03T07:54:30.072Z,6236
2018-06-03T07:55:10.494Z,6180
2018-06-03T07:55:50.900Z,5564
2018-06-03T07:56:31.471Z,5300
2018-06-03T07:57:11.852Z,5224
2018-06-03T07:57:52.289Z,5348
2018-06-03T07:58:32.669Z,5524
2018-06-03T07:59:13.070Z,6044
2018-06-03T07:59:53.506Z,6032
2018-06-03T08:00:33.911Z,5972
2018-06-03T08:01:14.335Z,5896
2018-06-03T08:01:54.702Z,5828
2018-06-03T08:02:35.130Z,5728
2018-06-03T08:03:15.562Z,5612
2018-06-03T08:03:55.986Z,5544
2018-06-03T08:04:36.395Z,5420
2018-06-03T08:05:16.803Z,5436
2018-06-03T08:05:57.299Z,5400
2018-06-03T08:06:37.604Z,5332
2018-06-03T08:07:18.046Z,5264
2018-06-03T08:07:58.450Z,4656
2018-06-03T08:08:38.852Z,4612
2018-06-03T08:09:19.268Z,4708
2018-06-03T08:09:59.725Z,4880
2018-06-03T08:10:40.127Z,4852
2018-06-03T08:11:20.552Z,4728
2018-06-03T08:12:00.968Z,4732
2018-06-03T08:12:41.399Z,4616
2018-06-03T08:13:21.797Z,4616
2018-06-03T08:14:02.245Z,4544
2018-06-03T08:14:42.661Z,4576
2018-06-03T08:15:23.072Z,4808
2018-06-03T08:16:03.466Z,4844
2018-06-03T08:16:43.892Z,4748
2018-06-03T08:17:24.346Z,4840
2018-06-03T08:18:04.802Z,4712
2018-06-03T08:18:45.459Z,4936
2018-06-03T08:19:25.851Z,4844
2018-06-03T08:20:06.245Z,4856
2018-06-03T08:20:46.691Z,4848
2018-06-03T08:21:27.082Z,4916
2018-06-03T08:22:07.494Z,4936
2018-06-03T08:22:47.964Z,5120
2018-06-03T08:23:28.393Z,5228
2018-06-03T08:24:08.800Z,5172
2018-06-03T08:24:49.205Z,5080
2018-06-03T08:25:29.571Z,4780
2018-06-03T08:26:10.017Z,4544
2018-06-03T08:26:50.390Z,4400
2018-06-03T08:27:30.844Z,4324
2018-06-03T08:28:11.258Z,4260
2018-06-03T08:28:51.705Z,3716
2018-06-03T08:29:32.084Z,3704
2018-06-03T08:30:12.568Z,3712
2018-06-03T08:30:52.983Z,3760
2018-06-03T08:31:33.356Z,3780
2018-06-03T08:32:13.804Z,3844
2018-06-03T08:32:54.172Z,3908
2018-06-03T08:33:34.576Z,3964
2018-06-03T08:34:14.980Z,4056
2018-06-03T08:34:55.381Z,4276
2018-06-03T08:35:35.845Z,4528
2018-06-03T08:36:16.263Z,4456
2018-06-03T08:36:56.705Z,4328
2018-06-03T08:37:37.142Z,4276
2018-06-03T08:38:17.544Z,4156
2018-06-03T08:38:57.925Z,3812
2018-06-03T08:39:38.342Z,4036
2018-06-03T08:40:18.749Z,4252
2018-06-03T08:40:59.199Z,4260
2018-06-03T08:41:39.597Z,4356
2018-06-03T08:42:19.994Z,4376
2018-06-03T08:43:00.397Z,4332
2018-06-03T08:43:40.797Z,4420
2018-06-03T08:44:21.228Z,4240
2018-06-03T08:45:01.680Z,4292
2018-06-03T08:45:42.083Z,4420
2018-06-03T08:46:22.504Z,4396
2018-06-03T08:47:02.893Z,4464
2018-06-03T08:47:43.308Z,4548
2018-06-03T08:48:23.678Z,4616
2018-06-03T08:49:04.112Z,4608
2018-06-03T08:49:44.579Z,4456
2018-06-03T08:50:24.991Z,4424
2018-06-03T08:51:05.428Z,4204
2018-06-03T08:51:45.832Z,4120
2018-06-03T08:52:26.285Z,4036
2018-06-03T08:53:06.693Z,3872
2018-06-03T08:53:47.072Z,3800
2018-06-03T08:54:27.471Z,3664
2018-06-03T08:55:07.923Z,3600
2018-06-03T08:55:48.320Z,3636
2018-06-03T08:56:28.759Z,3668
2018-06-03T08:57:09.138Z,3700
2018-06-03T08:57:49.630Z,3772
2018-06-03T08:58:29.996Z,3832
2018-06-03T08:59:10.394Z,3860
2018-06-03T08:59:50.842Z,3888
2018-06-03T09:00:31.289Z,3976
2018-06-03T09:01:11.661Z,4020
2018-06-03T09:01:52.050Z,4044
2018-06-03T09:02:32.495Z,4120
2018-06-03T09:03:12.988Z,4176
2018-06-03T09:03:53.472Z,4052
2018-06-03T09:04:33.766Z,3888
2018-06-03T09:05:14.165Z,3672
2018-06-03T09:05:54.584Z,3052
2018-06-03T09:06:34.995Z,2868
2018-06-03T09:07:15.423Z,2788
2018-06-03T09:07:55.856Z,2736
2018-06-03T09:08:36.246Z,2708
2018-06-03T09:09:16.635Z,2692
2018-06-03T09:09:57.038Z,2728
2018-06-03T09:10:37.512Z,2816
2018-06-03T09:11:17.949Z,2940
2018-06-03T09:11:58.428Z,3076
2018-06-03T09:12:38.843Z,3108
2018-06-03T09:13:19.214Z,3132
2018-06-03T09:13:59.608Z,3116
2018-06-03T09:14:40.073Z,3168
2018-06-03T09:15:20.446Z,3260
2018-06-03T09:16:00.867Z,3296
2018-06-03T09:16:41.305Z,3552
2018-06-03T09:17:21.706Z,3656
2018-06-03T09:18:02.121Z,3812
2018-06-03T09:18:42.533Z,3136
2018-06-03T09:19:22.969Z,3468
2018-06-03T09:20:03.385Z,3336
2018-06-03T09:20:43.789Z,2836
2018-06-03T09:21:24.209Z,3348
2018-06-03T09:22:04.611Z,2788
2018-06-03T09:22:45.028Z,2780
2018-06-03T09:23:25.450Z,2792
2018-06-03T09:24:05.893Z,2864
2018-06-03T09:24:46.291Z,2936
2018-06-03T10:42:54.776Z,2636
2018-06-03T10:43:35.274Z,2644
2018-06-03T10:44:15.716Z,2612
2018-06-03T10:44:56.072Z,2592
2018-06-03T10:45:36.487Z,2592
2018-06-03T10:46:16.911Z,2572
2018-06-03T10:46:57.370Z,2628
2018-06-03T10:47:37.716Z,2808
2018-06-03T10:48:18.130Z,3012
2018-06-03T10:48:58.550Z,2940
2018-06-03T10:49:38.908Z,2892
2018-06-03T10:50:19.350Z,2872
2018-06-03T10:50:59.736Z,2820
2018-06-03T10:51:40.141Z,2772
2018-06-03T10:52:20.573Z,2736
2018-06-03T10:53:00.980Z,2744
2018-06-03T10:53:41.377Z,2768
2018-06-03T10:54:21.861Z,2812
2018-06-03T10:55:02.186Z,2860
2018-06-03T10:55:42.611Z,2600
2018-06-03T10:56:22.972Z,2584
2018-06-03T10:57:03.368Z,2844
2018-06-03T10:57:43.803Z,2792
2018-06-03T10:58:24.262Z,2304
2018-06-03T10:59:04.621Z,2280
2018-06-03T10:59:45.051Z,2636
2018-06-03T11:00:25.462Z,2252
2018-06-03T11:01:05.922Z,2228
2018-06-03T11:01:46.364Z,2228
2018-06-03T11:02:26.760Z,2188
2018-06-03T11:03:07.139Z,2184
2018-06-03T11:03:47.585Z,2164
2018-06-03T11:04:27.986Z,2152
2018-06-03T11:05:08.441Z,2144
2018-06-03T11:05:48.846Z,2120
2018-06-03T11:06:29.271Z,2060
2018-06-03T11:07:09.678Z,1964
2018-06-03T11:07:50.124Z,1876
2018-06-03T11:08:30.556Z,1800
2018-06-03T11:09:11.063Z,1756
2018-06-03T11:09:51.434Z,1728
2018-06-03T11:10:31.889Z,1724
2018-06-03T11:11:12.310Z,1728
2018-06-03T11:11:52.716Z,1720
2018-06-03T11:12:33.127Z,1708
2018-06-03T11:13:13.589Z,1704
2018-06-03T11:14:08.635Z,1704
2018-06-03T11:14:49.086Z,1712
2018-06-03T11:15:29.427Z,1724
2018-06-03T11:16:09.833Z,1748
2018-06-03T11:16:50.272Z,1784
2018-06-03T11:17:30.649Z,1816
2018-06-03T11:18:11.165Z,1820
2018-06-03T11:18:51.465Z,1796
2018-06-03T11:19:31.896Z,1784